Time;durP1;ratioP1;P1;durP2;ratioP2;P2;SDS_P1;SDS_P2;PMS_P1;PMS_P2;Temp;Humidity;BMP_temperature;BMP_pressure;BME280_temperature;BME280_humidity;BME280_pressure;Samples;Min_cycle;Max_cycle;Signal;HPM_P1;HPM_P2
2022/09/22 00:01:34;;;;;;;7.28;5.85;;;12.40;99.90;;;;;;5091348;28;20378;-65
2022/09/22 00:04:04;;;;;;;9.85;5.85;;;12.40;99.90;;;;;;5090961;28;20382;-65
2022/09/22 00:06:39;;;;;;;8.07;5.72;;;12.30;99.90;;;;;;5091828;28;20797;-65
2022/09/22 00:09:07;;;;;;;9.55;6.30;;;12.30;99.90;;;;;;5089605;28;20385;-65
2022/09/22 00:11:36;;;;;;;7.00;5.38;;;12.20;99.90;;;;;;5091396;28;20657;-65
2022/09/22 00:14:06;;;;;;;11.00;5.93;;;12.20;99.90;;;;;;5089992;28;20414;-66
2022/09/22 00:16:52;;;;;;;7.70;6.03;;;12.20;99.90;;;;;;5090850;28;20390;-66
2022/09/22 00:19:24;;;;;;;10.15;6.10;;;12.20;99.90;;;;;;5092233;28;20481;-65
2022/09/22 00:21:50;;;;;;;9.15;6.13;;;12.10;99.90;;;;;;5091713;28;20766;-66
2022/09/22 00:24:17;;;;;;;8.80;6.03;;;12.10;99.90;;;;;;5090968;28;20658;-66
2022/09/22 00:26:43;;;;;;;8.02;5.60;;;12.10;99.90;;;;;;5089932;28;20941;-66
2022/09/22 00:29:10;;;;;;;7.47;5.80;;;12.20;99.90;;;;;;5089924;28;20786;-66
2022/09/22 00:31:38;;;;;;;8.38;5.55;;;12.10;99.90;;;;;;5089050;28;20381;-66
2022/09/22 00:34:04;;;;;;;8.05;5.78;;;12.10;99.90;;;;;;5086588;28;20501;-66
2022/09/22 00:36:30;;;;;;;7.00;5.50;;;12.10;99.90;;;;;;5085944;28;20413;-66
2022/09/22 00:38:57;;;;;;;8.90;5.87;;;12.10;99.90;;;;;;5086285;28;20410;-66
2022/09/22 00:41:29;;;;;;;7.50;5.80;;;12.10;99.90;;;;;;5089221;28;20378;-66
2022/09/22 00:44:17;;;;;;;7.90;5.93;;;12.10;99.90;;;;;;5088874;28;20398;-66
2022/09/22 00:46:45;;;;;;;8.43;6.22;;;12.10;99.90;;;;;;5090375;28;20442;-66
2022/09/22 00:49:14;;;;;;;7.93;5.57;;;12.00;99.90;;;;;;5089290;28;20390;-66
2022/09/22 00:51:42;;;;;;;7.43;5.80;;;12.00;99.90;;;;;;5090305;28;20389;-66
2022/09/22 00:54:12;;;;;;;9.73;6.35;;;12.00;99.90;;;;;;5089009;28;20398;-65
2022/09/22 00:56:52;;;;;;;9.27;6.15;;;11.90;99.90;;;;;;5089219;28;20443;-66
2022/09/22 00:59:20;;;;;;;7.43;5.47;;;11.90;99.90;;;;;;5090179;28;20666;-66
2022/09/22 01:01:46;;;;;;;8.98;6.25;;;12.00;99.90;;;;;;5087081;28;20439;-66
2022/09/22 01:04:13;;;;;;;8.98;5.70;;;11.90;99.90;;;;;;5087036;28;20386;-65
2022/09/22 01:06:40;;;;;;;7.30;6.00;;;11.90;99.90;;;;;;5089221;28;20428;-65
2022/09/22 01:09:06;;;;;;;7.88;6.25;;;11.90;99.90;;;;;;5090667;28;20421;-65
2022/09/22 01:11:33;;;;;;;7.63;5.75;;;11.80;99.90;;;;;;5089790;28;20423;-65
2022/09/22 01:14:13;;;;;;;8.55;6.05;;;11.80;99.90;;;;;;5090113;28;20498;-65
2022/09/22 01:17:00;;;;;;;11.15;6.03;;;11.80;99.90;;;;;;5090077;28;20382;-65
2022/09/22 01:19:53;;;;;;;7.00;5.45;;;11.70;99.90;;;;;;5088735;28;20654;-65
2022/09/22 01:22:50;;;;;;;6.75;5.57;;;11.70;99.90;;;;;;5089591;28;20455;-65
2022/09/22 01:25:41;;;;;;;7.78;5.88;;;11.70;99.90;;;;;;5089505;28;20737;-65
2022/09/22 01:28:21;;;;;;;8.45;5.75;;;11.70;99.90;;;;;;5088679;28;20486;-65
2022/09/22 01:31:08;;;;;;;7.78;5.75;;;11.70;99.90;;;;;;5088239;28;20638;-65
2022/09/22 01:33:49;;;;;;;6.77;5.57;;;11.60;99.90;;;;;;5090358;28;20480;-65
2022/09/22 01:36:46;;;;;;;7.90;5.50;;;11.60;99.90;;;;;;5089777;28;20382;-65
2022/09/22 01:39:18;;;;;;;9.10;5.90;;;11.50;99.90;;;;;;5089295;28;20386;-65
2022/09/22 01:42:10;;;;;;;6.65;5.45;;;11.50;99.90;;;;;;5089054;28;20794;-65
2022/09/22 01:45:00;;;;;;;7.47;5.63;;;11.50;99.90;;;;;;5089750;28;20804;-65
2022/09/22 01:47:33;;;;;;;8.02;6.03;;;11.50;99.90;;;;;;5091177;28;20458;-65
2022/09/22 01:50:05;;;;;;;11.07;5.75;;;11.40;99.90;;;;;;5091156;28;20378;-65
2022/09/22 01:52:34;;;;;;;7.80;5.47;;;11.40;99.90;;;;;;5089887;28;20476;-66
2022/09/22 01:55:08;;;;;;;8.25;5.80;;;11.40;99.90;;;;;;5088956;28;20771;-65
2022/09/22 01:58:00;;;;;;;8.00;5.88;;;11.30;99.90;;;;;;5091212;28;20967;-65
2022/09/22 02:00:26;;;;;;;7.43;5.80;;;11.30;99.90;;;;;;5090781;28;20409;-65
2022/09/22 02:02:57;;;;;;;7.20;5.47;;;11.30;99.90;;;;;;5092435;28;20393;-65
2022/09/22 02:05:42;;;;;;;7.22;5.40;;;11.30;99.90;;;;;;5090932;28;20401;-65
2022/09/22 02:08:15;;;;;;;8.00;5.35;;;11.30;99.90;;;;;;5053875;28;20765;-65
2022/09/22 02:10:44;;;;;;;7.78;5.20;;;11.30;99.90;;;;;;5054916;28;20388;-65
2022/09/22 02:13:10;;;;;;;8.88;5.18;;;11.30;99.90;;;;;;5056647;28;20410;-65
2022/09/22 02:18:26;;;;;;;9.30;5.78;;;11.20;99.90;;;;;;5075090;28;20825;-65
2022/09/22 02:20:52;;;;;;;6.78;4.80;;;11.10;99.90;;;;;;5056315;28;20388;-66
2022/09/22 02:23:18;;;;;;;6.97;4.93;;;11.20;99.90;;;;;;5055716;28;20411;-65
2022/09/22 02:25:44;;;;;;;6.38;4.90;;;11.20;99.90;;;;;;5055428;28;20780;-66
2022/09/22 02:28:15;;;;;;;7.47;5.53;;;11.20;99.90;;;;;;5054241;28;20387;-66
2022/09/22 02:30:42;;;;;;;7.95;5.20;;;11.10;99.90;;;;;;5072487;28;20688;-66
2022/09/22 02:33:08;;;;;;;6.80;5.40;;;11.10;99.90;;;;;;5055028;28;20396;-66
2022/09/22 02:35:38;;;;;;;7.63;5.50;;;11.10;99.90;;;;;;5053479;28;20463;-65
2022/09/22 02:38:11;;;;;;;6.23;4.53;;;11.10;99.90;;;;;;5055528;28;20384;-66
2022/09/22 02:41:00;;;;;;;5.70;5.10;;;11.10;99.90;;;;;;5057973;28;20380;-66
2022/09/22 02:44:11;;;;;;;7.13;5.38;;;11.10;99.90;;;;;;5058702;28;20486;-65
2022/09/22 02:46:52;;;;;;;5.82;4.50;;;11.00;99.90;;;;;;5071631;28;20403;-65
2022/09/22 02:49:18;;;;;;;6.95;4.50;;;11.00;99.90;;;;;;5056475;28;20391;-66
2022/09/22 02:51:47;;;;;;;7.38;4.90;;;11.00;99.90;;;;;;5057560;28;20482;-65
2022/09/22 02:54:16;;;;;;;9.15;4.50;;;11.00;99.90;;;;;;5056897;28;20443;-65
2022/09/22 02:56:42;;;;;;;5.40;4.05;;;11.00;99.90;;;;;;5055285;28;20441;-65
2022/09/22 02:59:10;;;;;;;7.93;4.78;;;11.00;99.90;;;;;;5056489;28;20460;-66
2022/09/22 03:01:37;;;;;;;6.43;5.30;;;11.00;99.90;;;;;;5073261;28;20383;-65
2022/09/22 03:04:03;;;;;;;6.63;4.95;;;11.00;99.90;;;;;;5057140;28;20430;-66
2022/09/22 03:06:29;;;;;;;7.00;4.40;;;11.00;99.90;;;;;;5070023;28;20870;-66
2022/09/22 03:08:55;;;;;;;7.38;4.70;;;10.90;99.90;;;;;;5094682;28;20398;-65
2022/09/22 03:11:21;;;;;;;8.10;4.28;;;10.90;99.90;;;;;;5093796;28;20794;-66
2022/09/22 03:13:47;;;;;;;6.07;4.60;;;10.90;99.90;;;;;;5091877;28;20425;-65
2022/09/22 03:16:12;;;;;;;6.10;4.57;;;10.90;99.90;;;;;;5090145;28;20541;-65
2022/09/22 03:18:38;;;;;;;5.43;4.23;;;10.90;99.90;;;;;;5089841;28;20682;-65
2022/09/22 03:21:04;;;;;;;5.50;4.27;;;10.90;99.90;;;;;;5089587;28;20442;-65
2022/09/22 03:23:29;;;;;;;4.60;4.07;;;10.80;99.90;;;;;;5085119;28;20390;-65
2022/09/22 03:25:55;;;;;;;5.95;4.15;;;10.80;99.90;;;;;;5086488;28;20390;-65
2022/09/22 03:28:20;;;;;;;6.00;4.20;;;10.80;99.90;;;;;;5088082;28;20401;-65
2022/09/22 03:30:46;;;;;;;6.90;4.33;;;10.80;99.90;;;;;;5088776;28;20378;-65
2022/09/22 03:33:12;;;;;;;6.03;3.97;;;10.80;99.90;;;;;;5090977;28;20674;-65
2022/09/22 03:35:37;;;;;;;5.53;4.13;;;10.80;99.90;;;;;;5091871;28;20619;-66
2022/09/22 03:38:03;;;;;;;4.70;3.70;;;10.80;99.90;;;;;;5091166;28;20382;-65
2022/09/22 03:40:29;;;;;;;6.72;4.00;;;10.80;99.90;;;;;;5091800;28;20398;-65
2022/09/22 03:42:55;;;;;;;6.10;4.00;;;10.80;99.90;;;;;;5089459;28;20426;-65
2022/09/22 03:45:20;;;;;;;5.83;4.13;;;10.80;99.90;;;;;;5087790;28;20485;-64
2022/09/22 03:47:46;;;;;;;6.07;3.88;;;10.70;99.90;;;;;;5088682;28;20401;-65
2022/09/22 03:50:12;;;;;;;5.07;4.10;;;10.70;99.90;;;;;;5091572;28;20405;-65
2022/09/22 03:52:40;;;;;;;5.27;3.93;;;10.70;99.90;;;;;;5089286;28;20536;-66
2022/09/22 03:55:06;;;;;;;6.35;4.00;;;10.70;99.90;;;;;;5086986;28;20370;-65
2022/09/22 03:57:32;;;;;;;5.40;4.00;;;10.70;99.90;;;;;;5085599;28;20461;-66
2022/09/22 03:59:58;;;;;;;4.97;3.70;;;10.60;99.90;;;;;;5086736;28;20766;-66
2022/09/22 04:02:23;;;;;;;4.10;3.40;;;10.60;99.90;;;;;;5085945;28;20385;-66
2022/09/22 04:04:49;;;;;;;5.90;3.87;;;10.60;99.90;;;;;;5085101;28;20401;-66
2022/09/22 04:07:14;;;;;;;6.72;3.40;;;10.60;99.90;;;;;;5083331;28;20415;-66
2022/09/22 04:09:40;;;;;;;6.93;3.73;;;10.60;99.90;;;;;;5085503;28;20579;-66
2022/09/22 04:12:07;;;;;;;4.97;4.15;;;10.60;99.90;;;;;;5087622;28;20747;-65
2022/09/22 04:14:32;;;;;;;5.38;4.20;;;10.60;99.90;;;;;;5085132;28;20917;-65
2022/09/22 04:16:58;;;;;;;5.70;4.13;;;10.50;99.90;;;;;;5086425;28;20385;-65
2022/09/22 04:19:23;;;;;;;5.15;4.10;;;10.50;99.90;;;;;;5086511;28;20439;-65
2022/09/22 04:21:49;;;;;;;6.63;4.03;;;10.50;99.90;;;;;;5086645;28;20416;-66
2022/09/22 04:24:16;;;;;;;8.07;3.83;;;10.50;99.90;;;;;;5085496;28;20378;-65
2022/09/22 04:26:42;;;;;;;6.05;4.10;;;10.50;99.90;;;;;;5083979;28;20392;-65
2022/09/22 04:29:08;;;;;;;7.20;3.90;;;10.50;99.90;;;;;;5085853;28;20702;-66
2022/09/22 04:31:34;;;;;;;6.93;4.03;;;10.50;99.90;;;;;;5088169;28;20386;-66
2022/09/22 04:33:59;;;;;;;7.63;3.90;;;10.40;99.90;;;;;;5088326;28;20504;-65
2022/09/22 04:36:25;;;;;;;4.83;3.70;;;10.50;99.90;;;;;;5085839;28;20622;-66
2022/09/22 04:38:50;;;;;;;7.72;4.10;;;10.50;99.90;;;;;;5085639;28;20385;-66
2022/09/22 04:41:16;;;;;;;8.30;3.87;;;10.50;99.90;;;;;;5085466;28;20390;-65
2022/09/22 04:43:44;;;;;;;5.27;3.77;;;10.40;99.90;;;;;;5086520;28;20833;-65
2022/09/22 04:46:10;;;;;;;6.93;4.03;;;10.40;99.90;;;;;;5086544;28;20382;-65
2022/09/22 04:48:35;;;;;;;8.20;3.87;;;10.40;99.90;;;;;;5086678;28;20675;-66
2022/09/22 04:51:01;;;;;;;6.73;3.97;;;10.30;99.90;;;;;;5085842;28;20712;-66
2022/09/22 04:53:27;;;;;;;5.07;3.80;;;10.30;99.90;;;;;;5085473;28;20485;-66
2022/09/22 04:55:56;;;;;;;6.03;4.35;;;10.30;99.90;;;;;;5083655;28;20454;-67
2022/09/22 04:58:22;;;;;;;5.85;3.92;;;10.30;99.90;;;;;;5080814;28;21059;-66
2022/09/22 05:00:47;;;;;;;6.32;3.47;;;10.20;99.90;;;;;;5080313;28;20413;-66
2022/09/22 05:03:13;;;;;;;7.33;3.90;;;10.20;99.90;;;;;;5080751;28;20381;-66
2022/09/22 05:05:38;;;;;;;8.17;3.80;;;10.20;99.90;;;;;;5081187;28;20382;-66
2022/09/22 05:08:04;;;;;;;6.93;4.13;;;10.20;99.90;;;;;;5081663;28;20642;-66
2022/09/22 05:10:33;;;;;;;5.97;3.90;;;10.20;99.90;;;;;;5084447;28;20679;-66
2022/09/22 05:12:58;;;;;;;9.10;4.43;;;10.20;99.90;;;;;;5085838;28;20394;-66
2022/09/22 05:15:24;;;;;;;6.47;4.20;;;10.20;99.90;;;;;;5082636;28;20550;-66
2022/09/22 05:17:51;;;;;;;7.93;4.30;;;10.20;99.90;;;;;;5083573;28;20680;-66
2022/09/22 05:20:19;;;;;;;7.55;4.40;;;10.20;99.90;;;;;;5086427;28;20370;-66
2022/09/22 05:22:45;;;;;;;6.68;3.80;;;10.10;99.90;;;;;;5089894;28;20390;-66
2022/09/22 05:25:13;;;;;;;6.40;3.83;;;10.20;99.90;;;;;;5088971;28;20758;-66
2022/09/22 05:27:49;;;;;;;6.43;3.92;;;10.20;99.90;;;;;;5090104;28;20393;-66
2022/09/22 05:30:16;;;;;;;8.55;4.28;;;10.10;99.90;;;;;;5087585;28;20398;-66
2022/09/22 05:32:43;;;;;;;7.22;4.18;;;10.10;99.90;;;;;;5086337;28;20592;-66
2022/09/22 05:35:10;;;;;;;9.43;3.88;;;10.10;99.90;;;;;;5086574;28;20378;-66
2022/09/22 05:37:36;;;;;;;6.63;4.15;;;10.10;99.90;;;;;;5087935;28;20697;-66
2022/09/22 05:40:02;;;;;;;5.60;3.90;;;10.10;99.90;;;;;;5090258;28;20811;-66
2022/09/22 05:42:28;;;;;;;7.03;4.50;;;10.00;99.90;;;;;;5090727;28;20409;-66
2022/09/22 05:44:53;;;;;;;6.47;4.07;;;10.10;99.90;;;;;;5088266;28;20436;-66
2022/09/22 05:47:19;;;;;;;5.80;3.80;;;10.10;99.90;;;;;;5086570;28;20404;-66
2022/09/22 05:49:44;;;;;;;6.53;4.18;;;10.10;99.90;;;;;;5086860;28;20390;-65
2022/09/22 05:52:10;;;;;;;7.80;4.30;;;10.20;99.90;;;;;;5089343;28;20377;-65
2022/09/22 05:54:35;;;;;;;6.90;3.80;;;10.20;99.90;;;;;;5086170;28;20405;-66
2022/09/22 05:57:01;;;;;;;5.77;4.00;;;10.20;99.90;;;;;;5085100;28;20378;-66
2022/09/22 05:59:26;;;;;;;5.43;3.47;;;10.20;99.90;;;;;;5083089;28;20505;-67
2022/09/22 06:01:52;;;;;;;4.97;3.73;;;10.20;99.90;;;;;;5080621;28;20939;-66
2022/09/22 06:04:18;;;;;;;8.07;4.10;;;10.30;99.90;;;;;;5080965;28;20451;-66
2022/09/22 06:06:44;;;;;;;6.45;4.20;;;10.30;99.90;;;;;;5079484;28;20414;-66
2022/09/22 06:09:09;;;;;;;6.55;4.03;;;10.20;99.90;;;;;;5078561;28;20389;-69
2022/09/22 06:11:35;;;;;;;6.75;4.22;;;10.20;99.90;;;;;;5079025;28;20813;-65
2022/09/22 06:14:01;;;;;;;9.38;5.07;;;10.20;99.90;;;;;;5081146;28;20457;-66
2022/09/22 06:16:26;;;;;;;10.77;5.23;;;10.30;99.90;;;;;;5082595;28;20553;-66
2022/09/22 06:18:52;;;;;;;7.60;4.07;;;10.30;99.90;;;;;;5081072;28;20417;-66
2022/09/22 06:21:17;;;;;;;7.50;4.15;;;10.20;99.90;;;;;;5082200;28;20412;-66
2022/09/22 06:23:43;;;;;;;8.27;4.40;;;10.20;99.90;;;;;;5081230;28;20477;-66
2022/09/22 06:26:09;;;;;;;7.50;4.10;;;10.20;99.90;;;;;;5080563;28;20757;-66
2022/09/22 06:28:35;;;;;;;8.25;4.43;;;10.30;99.90;;;;;;5081724;28;20398;-66
2022/09/22 06:31:00;;;;;;;7.33;4.07;;;10.20;99.90;;;;;;5079660;28;20374;-65
2022/09/22 06:33:29;;;;;;;7.90;4.03;;;10.30;99.90;;;;;;5080082;28;20410;-66
2022/09/22 06:35:56;;;;;;;6.45;3.90;;;10.40;99.90;;;;;;5082562;28;20446;-66
2022/09/22 06:38:23;;;;;;;7.10;4.00;;;10.50;99.90;;;;;;5080076;28;20386;-66
2022/09/22 06:40:50;;;;;;;5.75;3.88;;;10.60;99.90;;;;;;5081364;28;20378;-66
2022/09/22 06:43:19;;;;;;;6.25;4.30;;;10.60;99.90;;;;;;5082935;28;20446;-66
2022/09/22 06:45:45;;;;;;;9.60;4.00;;;10.60;99.90;;;;;;5064515;28;20425;-65
2022/09/22 06:48:11;;;;;;;7.65;4.38;;;10.60;99.90;;;;;;5079714;28;20425;-66
2022/09/22 06:50:39;;;;;;;5.80;4.10;;;10.70;99.90;;;;;;5079230;28;20663;-66
2022/09/22 06:53:06;;;;;;;5.63;3.83;;;10.70;99.90;;;;;;5077828;28;20394;-68
2022/09/22 06:55:32;;;;;;;15.05;5.47;;;10.70;99.90;;;;;;5077336;28;20386;-66
2022/09/22 06:57:59;;;;;;;10.07;4.28;;;10.70;99.90;;;;;;5078494;28;20378;-66
2022/09/22 07:00:33;;;;;;;6.65;4.18;;;10.60;99.90;;;;;;5075475;28;20401;-66
2022/09/22 07:03:19;;;;;;;7.60;4.30;;;10.70;99.90;;;;;;5076773;28;20390;-65
2022/09/22 07:05:59;;;;;;;7.57;4.50;;;10.70;99.90;;;;;;5075389;28;20485;-66
2022/09/22 07:08:26;;;;;;;6.25;4.03;;;10.70;99.90;;;;;;5072565;28;20979;-66
2022/09/22 07:10:57;;;;;;;8.18;3.97;;;10.80;99.90;;;;;;5074055;28;20786;-66
2022/09/22 07:13:24;;;;;;;7.45;4.05;;;10.90;99.90;;;;;;5072537;28;20681;-66
2022/09/22 07:15:50;;;;;;;11.88;4.55;;;11.00;99.90;;;;;;5071555;28;20746;-65
2022/09/22 07:18:16;;;;;;;14.95;4.82;;;11.00;99.90;;;;;;5071072;28;20469;-66
2022/09/22 07:20:44;;;;;;;8.97;4.93;;;10.90;99.90;;;;;;5070557;28;20654;-66
2022/09/22 07:23:17;;;;;;;11.60;4.88;;;10.90;99.90;;;;;;5072664;28;20374;-66
2022/09/22 07:25:49;;;;;;;6.75;4.07;;;10.90;99.90;;;;;;5072397;28;20404;-65
2022/09/22 07:28:14;;;;;;;6.32;4.45;;;10.90;99.90;;;;;;5075223;28;20853;-66
2022/09/22 07:30:40;;;;;;;8.67;4.13;;;11.10;99.90;;;;;;5077058;28;20386;-66
2022/09/22 07:33:06;;;;;;;7.30;4.38;;;11.00;99.90;;;;;;5080100;28;20759;-66
2022/09/22 07:35:36;;;;;;;6.57;4.13;;;11.10;99.90;;;;;;5081512;28;20894;-66
2022/09/22 07:38:03;;;;;;;5.70;3.58;;;11.20;99.90;;;;;;5080478;28;20785;-66
2022/09/22 07:40:28;;;;;;;6.03;3.53;;;11.30;99.90;;;;;;5078742;28;20390;-66
2022/09/22 07:42:54;;;;;;;5.93;3.90;;;11.40;99.90;;;;;;5075165;28;20451;-66
2022/09/22 07:45:22;;;;;;;5.47;3.67;;;11.50;99.90;;;;;;5072625;28;20916;-66
2022/09/22 07:50:34;;;;;;;7.28;3.83;;;11.60;99.90;;;;;;5069831;28;20435;-66
2022/09/22 07:53:00;;;;;;;7.07;4.43;;;11.70;99.90;;;;;;5066615;28;20459;-65
2022/09/22 07:55:26;;;;;;;4.93;4.30;;;11.80;99.90;;;;;;5066184;28;20546;-66
2022/09/22 07:57:58;;;;;;;9.83;4.53;;;11.80;99.90;;;;;;5067681;28;20630;-66
2022/09/22 08:00:32;;;;;;;8.85;4.97;;;11.80;99.90;;;;;;5072118;28;20397;-66
2022/09/22 08:02:57;;;;;;;11.95;5.95;;;11.90;99.90;;;;;;5074668;28;20712;-66
2022/09/22 08:05:26;;;;;;;6.85;4.60;;;11.80;99.90;;;;;;5076231;28;20582;-65
2022/09/22 08:07:57;;;;;;;7.43;4.10;;;11.90;99.90;;;;;;5076476;28;20453;-65
2022/09/22 08:10:24;;;;;;;13.60;5.60;;;11.90;99.90;;;;;;5075197;28;20379;-65
2022/09/22 08:12:56;;;;;;;11.27;5.00;;;12.00;99.90;;;;;;5075019;28;20378;-65
2022/09/22 08:15:22;;;;;;;9.63;5.05;;;12.00;99.90;;;;;;5078686;28;20497;-65
2022/09/22 08:17:49;;;;;;;8.32;4.90;;;11.90;99.90;;;;;;5080975;28;20489;-65
2022/09/22 08:20:15;;;;;;;6.63;4.10;;;12.00;99.90;;;;;;5079066;28;20370;-65
2022/09/22 08:22:41;;;;;;;6.07;4.10;;;12.20;99.90;;;;;;5079728;28;20374;-66
2022/09/22 08:25:11;;;;;;;8.50;4.33;;;12.20;99.90;;;;;;5076973;28;20374;-66
2022/09/22 08:27:37;;;;;;;5.97;3.75;;;12.30;99.90;;;;;;5076976;28;20514;-65
2022/09/22 08:30:04;;;;;;;6.40;3.80;;;12.30;99.90;;;;;;5075969;28;20701;-65
2022/09/22 08:32:29;;;;;;;5.60;3.88;;;12.40;99.90;;;;;;5073542;28;20850;-65
2022/09/22 08:34:56;;;;;;;8.02;3.97;;;12.50;99.90;;;;;;5075062;28;20581;-65
2022/09/22 08:37:23;;;;;;;9.25;5.15;;;12.60;99.90;;;;;;5077172;28;20416;-65
2022/09/22 08:39:48;;;;;;;8.00;4.63;;;12.60;99.90;;;;;;5075504;28;20485;-65
2022/09/22 08:42:19;;;;;;;6.10;4.30;;;12.60;99.90;;;;;;5074698;28;20379;-66
2022/09/22 08:45:05;;;;;;;7.20;4.00;;;12.70;99.90;;;;;;5074144;28;20398;-65
2022/09/22 08:53:47;;;;;;;6.85;3.40;;;12.70;99.90;;;;;;5080737;28;20397;-65
2022/09/22 08:56:29;;;;;;;6.35;3.55;;;12.80;99.90;;;;;;5079311;28;20378;-66
2022/09/22 08:59:21;;;;;;;9.30;4.00;;;12.90;99.90;;;;;;5081187;28;20401;-65
2022/09/22 09:02:12;;;;;;;8.97;5.10;;;12.90;99.90;;;;;;5081083;28;20458;-65
2022/09/22 09:04:50;;;;;;;10.23;4.70;;;13.00;99.90;;;;;;5081044;28;20389;-66
2022/09/22 09:07:42;;;;;;;8.63;3.83;;;13.00;99.90;;;;;;5082753;28;20520;-66
2022/09/22 09:10:46;;;;;;;9.38;4.20;;;13.20;99.90;;;;;;5085450;28;20374;-66
2022/09/22 09:14:03;;;;;;;4.55;3.03;;;13.20;99.90;;;;;;5084905;28;20468;-66
2022/09/22 09:16:47;;;;;;;8.60;3.85;;;13.30;99.90;;;;;;5036318;28;20385;-58
2022/09/22 09:19:33;;;;;;;7.95;3.25;;;13.40;99.90;;;;;;5086286;28;20370;-57
2022/09/22 09:22:11;;;;;;;6.10;3.22;;;13.50;99.90;;;;;;5087015;28;20830;-57
2022/09/22 09:24:44;;;;;;;11.68;3.88;;;13.50;99.90;;;;;;5085200;28;20489;-59
2022/09/22 09:27:18;;;;;;;12.68;3.78;;;13.70;99.90;;;;;;5085862;28;20392;-58
2022/09/22 09:30:16;;;;;;;15.77;3.80;;;13.80;99.90;;;;;;5086682;28;20413;-59
2022/09/22 09:33:16;;;;;;;5.18;2.05;;;13.80;99.90;;;;;;5083372;28;20414;-66
2022/09/22 09:35:47;;;;;;;6.73;2.80;;;14.00;99.90;;;;;;5081078;28;20381;-66
2022/09/22 09:38:18;;;;;;;10.05;2.63;;;14.00;99.90;;;;;;5081797;28;20378;-66
2022/09/22 09:40:48;;;;;;;4.88;2.40;;;14.10;99.90;;;;;;5081272;28;20868;-66
2022/09/22 09:43:14;;;;;;;9.00;2.83;;;14.10;99.90;;;;;;5077561;28;20506;-67
2022/09/22 09:46:06;;;;;;;4.23;2.13;;;14.10;99.90;;;;;;5075521;28;20510;-67
2022/09/22 09:48:52;;;;;;;7.70;2.90;;;14.10;99.90;;;;;;5072609;28;20378;-66
2022/09/22 09:51:18;;;;;;;5.68;2.88;;;14.10;99.90;;;;;;5071712;28;20477;-66
2022/09/22 09:53:46;;;;;;;6.53;2.90;;;14.10;99.90;;;;;;5073477;28;20409;-66
2022/09/22 09:56:22;;;;;;;5.10;2.40;;;14.10;99.90;;;;;;5073787;28;20450;-66
2022/09/22 10:01:45;;;;;;;6.60;2.63;;;14.20;99.90;;;;;;5075260;28;20657;-66
2022/09/22 10:04:18;;;;;;;4.55;2.10;;;14.40;99.90;;;;;;5073044;28;20807;-66
2022/09/22 10:06:44;;;;;;;6.13;1.92;;;14.40;99.90;;;;;;5078753;28;20660;-66
2022/09/22 10:09:10;;;;;;;5.95;2.58;;;14.40;99.90;;;;;;5077946;28;20385;-66
2022/09/22 10:11:36;;;;;;;5.47;2.28;;;14.50;99.90;;;;;;5078243;28;20590;-66
2022/09/22 10:14:02;;;;;;;7.60;1.90;;;14.60;99.90;;;;;;5079512;28;20478;-66
2022/09/22 10:16:30;;;;;;;3.47;1.52;;;14.70;99.90;;;;;;5077654;28;20773;-67
2022/09/22 10:19:22;;;;;;;6.07;1.95;;;14.70;99.90;;;;;;5081078;28;20444;-67
2022/09/22 10:21:48;;;;;;;5.27;1.53;;;14.70;99.90;;;;;;5085833;28;20666;-67
2022/09/22 10:24:31;;;;;;;4.60;1.63;;;14.70;99.90;;;;;;5086380;28;20475;-67
2022/09/22 10:26:57;;;;;;;4.57;2.00;;;14.80;99.90;;;;;;5088529;28;20771;-67
2022/09/22 10:29:24;;;;;;;3.27;1.70;;;14.80;99.90;;;;;;5086729;28;21165;-66
2022/09/22 10:32:11;;;;;;;5.55;1.40;;;14.90;99.90;;;;;;5086744;28;20378;-66
2022/09/22 10:34:39;;;;;;;3.22;1.38;;;15.30;99.90;;;;;;5082700;28;20402;-66
2022/09/22 10:37:09;;;;;;;2.47;1.27;;;15.70;99.90;;;;;;5079615;28;20770;-66
2022/09/22 10:39:44;;;;;;;3.63;1.40;;;16.10;99.90;;;;;;5081325;28;20498;-66
2022/09/22 10:42:35;;;;;;;3.22;1.40;;;16.30;99.90;;;;;;5078544;28;20416;-66
2022/09/22 10:45:11;;;;;;;2.85;1.35;;;16.40;99.90;;;;;;5079309;28;20398;-66
2022/09/22 10:47:50;;;;;;;3.88;1.10;;;16.60;99.90;;;;;;5077359;28;20924;-67
2022/09/22 10:50:31;;;;;;;3.63;1.30;;;16.80;99.90;;;;;;5075102;28;20389;-66
2022/09/22 10:53:26;;;;;;;3.47;1.38;;;16.70;99.90;;;;;;5074895;28;20800;-67
2022/09/22 10:56:10;;;;;;;3.33;1.40;;;17.00;99.90;;;;;;5077016;28;20374;-67
2022/09/22 10:59:08;;;;;;;2.60;1.10;;;17.30;99.90;;;;;;5075537;28;20656;-67
2022/09/22 11:01:44;;;;;;;2.05;1.25;;;17.50;99.90;;;;;;5043138;28;20789;-67
2022/09/22 11:04:43;;;;;;;3.38;1.30;;;17.50;99.90;;;;;;5075177;28;20516;-66
2022/09/22 11:13:47;;;;;;;2.33;1.00;;;18.30;99.90;;;;;;5013667;28;20580;-67
2022/09/22 11:16:18;;;;;;;3.42;1.40;;;18.30;99.90;;;;;;4998058;28;20861;-67
2022/09/22 11:19:12;;;;;;;3.00;1.30;;;18.70;99.90;;;;;;5052248;28;20440;-67
2022/09/22 11:22:06;;;;;;;3.58;1.50;;;18.70;99.90;;;;;;5079660;28;20415;-67
2022/09/22 11:25:03;;;;;;;3.70;1.57;;;19.00;99.90;;;;;;5086541;28;20385;-66
2022/09/22 11:27:57;;;;;;;4.00;1.40;;;18.90;99.90;;;;;;5084885;28;20378;-66
2022/09/22 11:30:23;;;;;;;3.17;1.40;;;18.60;99.90;;;;;;5084654;28;20666;-66
2022/09/22 11:33:21;;;;;;;1.50;0.98;;;18.70;99.90;;;;;;5082429;28;20386;-66
2022/09/22 11:36:14;;;;;;;2.75;1.33;;;19.20;99.90;;;;;;5083260;28;20397;-66
2022/09/22 11:38:57;;;;;;;2.63;1.20;;;19.70;99.90;;;;;;5081824;28;20443;-68
2022/09/22 11:41:44;;;;;;;2.70;1.20;;;19.90;99.90;;;;;;5082647;28;20971;-68
2022/09/22 11:44:25;;;;;;;1.75;1.00;;;20.00;99.90;;;;;;5083255;28;20410;-67
2022/09/22 11:47:09;;;;;;;2.58;1.13;;;20.30;99.90;;;;;;5083348;28;20410;-67
2022/09/22 11:50:03;;;;;;;3.28;1.55;;;19.90;99.90;;;;;;5085456;28;20427;-68
2022/09/22 11:52:47;;;;;;;3.03;1.10;;;19.80;99.90;;;;;;5086450;28;20392;-67
2022/09/22 11:55:31;;;;;;;2.58;1.42;;;20.00;99.90;;;;;;5085670;28;20390;-65
2022/09/22 11:58:02;;;;;;;7.03;1.70;;;20.20;99.90;;;;;;5086336;28;20386;-66
2022/09/22 12:00:40;;;;;;;4.17;1.60;;;19.70;99.90;;;;;;5086397;28;20409;-66
2022/09/22 12:03:12;;;;;;;4.20;1.70;;;19.20;99.90;;;;;;5087886;28;20374;-66
2022/09/22 12:05:51;;;;;;;4.40;1.52;;;18.50;99.90;;;;;;5087846;28;20378;-65
2022/09/22 12:08:44;;;;;;;2.65;1.45;;;18.20;99.90;;;;;;5049666;28;20812;-66
2022/09/22 12:11:14;;;;;;;5.13;1.90;;;18.20;99.90;;;;;;5035827;28;20402;-66
2022/09/22 12:13:44;;;;;;;2.65;1.60;;;18.10;99.90;;;;;;5046951;28;20823;-66
2022/09/22 12:16:41;;;;;;;2.47;1.60;;;18.20;99.90;;;;;;5042488;28;20375;-65
2022/09/22 12:19:28;;;;;;;4.13;1.90;;;18.60;99.90;;;;;;5060313;28;20390;-65
2022/09/22 12:22:09;;;;;;;1.67;1.33;;;18.70;99.90;;;;;;5041396;28;20469;-66
2022/09/22 12:24:35;;;;;;;4.50;1.83;;;19.10;99.90;;;;;;5039535;28;20738;-65
2022/09/22 12:27:18;;;;;;;3.08;1.48;;;19.60;99.90;;;;;;5039787;28;20403;-65
2022/09/22 12:29:45;;;;;;;2.30;1.27;;;19.70;99.90;;;;;;5039645;28;20392;-66
2022/09/22 12:32:23;;;;;;;3.72;1.35;;;20.30;99.90;;;;;;5060257;28;20456;-66
2022/09/22 12:34:50;;;;;;;2.83;1.40;;;20.50;99.90;;;;;;5061221;28;20396;-66
2022/09/22 12:37:39;;;;;;;3.85;1.70;;;20.40;99.90;;;;;;5037478;28;20521;-66
2022/09/22 12:40:11;;;;;;;3.47;1.33;;;20.30;99.90;;;;;;5062185;28;20445;-66
2022/09/22 12:42:38;;;;;;;4.30;1.55;;;20.20;99.90;;;;;;5047103;28;20391;-67
2022/09/22 12:45:36;;;;;;;4.53;1.60;;;20.50;99.90;;;;;;5047769;28;20518;-66
2022/09/22 12:48:13;;;;;;;2.75;1.50;;;20.50;99.90;;;;;;5027580;28;20711;-67
2022/09/22 12:50:41;;;;;;;2.78;1.10;;;21.20;99.90;;;;;;5044040;28;20387;-67
2022/09/22 12:53:20;;;;;;;3.38;1.40;;;21.50;99.90;;;;;;5060566;28;20395;-67
2022/09/22 12:55:47;;;;;;;2.42;1.10;;;21.80;99.90;;;;;;5043705;28;20375;-66
2022/09/22 12:58:24;;;;;;;3.93;1.30;;;22.10;99.90;;;;;;5045123;28;20387;-65
2022/09/22 13:00:51;;;;;;;3.17;1.30;;;22.40;99.90;;;;;;5042412;28;20628;-65
2022/09/22 13:03:26;;;;;;;3.72;1.30;;;22.70;99.90;;;;;;5042445;28;20387;-66
2022/09/22 13:05:56;;;;;;;5.38;1.85;;;22.00;99.90;;;;;;5043732;28;20408;-66
2022/09/22 13:08:22;;;;;;;2.95;1.23;;;21.30;99.90;;;;;;5075703;28;20780;-66
2022/09/22 13:11:14;;;;;;;3.97;1.40;;;20.90;99.90;;;;;;5076967;28;20873;-67
2022/09/22 13:13:46;;;;;;;3.72;1.55;;;20.90;99.90;;;;;;5074314;28;20662;-66
2022/09/22 13:16:14;;;;;;;5.78;1.70;;;20.80;99.90;;;;;;5078169;28;20376;-67
2022/09/22 13:18:45;;;;;;;2.37;1.10;;;20.50;99.90;;;;;;5074958;28;20545;-66
2022/09/22 13:21:10;;;;;;;3.88;1.67;;;20.80;99.90;;;;;;5074783;28;20389;-67
2022/09/22 13:23:37;;;;;;;3.85;1.50;;;20.70;99.90;;;;;;5072124;28;20369;-66
2022/09/22 13:26:12;;;;;;;4.10;1.88;;;21.30;99.90;;;;;;5073860;28;20719;-66
2022/09/22 13:28:38;;;;;;;1.80;1.20;;;21.50;99.90;;;;;;5073897;28;20605;-66
2022/09/22 13:31:13;;;;;;;3.28;1.40;;;21.80;99.90;;;;;;5074417;28;20465;-66
2022/09/22 13:33:39;;;;;;;5.80;1.60;;;21.20;99.90;;;;;;5072981;28;20474;-66